createdAt,value
2022-11-15T00:00:33.281Z,99856
2022-11-15T00:06:50.728Z,99859
2022-11-15T00:12:57.971Z,99863
2022-11-15T00:19:16.370Z,99867
2022-11-15T00:25:26.724Z,99864
2022-11-15T00:31:28.270Z,99858
2022-11-15T00:37:45.838Z,99875
2022-11-15T00:43:48.521Z,99881
2022-11-15T00:49:55.862Z,99864
2022-11-15T00:56:04.157Z,99863
2022-11-15T01:02:05.962Z,99863
2022-11-15T01:09:27.774Z,99844
2022-11-15T01:15:29.565Z,99849
2022-11-15T01:27:31.949Z,99840
2022-11-15T01:33:36.930Z,99837
2022-11-15T01:39:55.956Z,99830
2022-11-15T01:45:46.664Z,99841
2022-11-15T01:51:42.770Z,99834
2022-11-15T02:03:50.863Z,99812
2022-11-15T02:09:55.725Z,99806
2022-11-15T02:15:46.455Z,99801
2022-11-15T02:21:58.401Z,99798
2022-11-15T02:27:53.982Z,99795
2022-11-15T02:33:54.439Z,99787
2022-11-15T02:39:50.189Z,99787
2022-11-15T02:45:45.457Z,99783
2022-11-15T02:52:07.266Z,99777
2022-11-15T02:58:07.947Z,99778
2022-11-15T03:04:02.677Z,99778
2022-11-15T03:10:01.032Z,99772
2022-11-15T03:15:52.718Z,99764
2022-11-15T03:21:57.428Z,99764
2022-11-15T03:28:00.060Z,99766
2022-11-15T03:34:04.176Z,99766
2022-11-15T03:40:05.603Z,99764
2022-11-15T03:46:05.668Z,99756
2022-11-15T03:58:22.484Z,99766
2022-11-15T04:04:23.061Z,99756
2022-11-15T04:10:38.975Z,99747
2022-11-15T04:16:42.696Z,99745
2022-11-15T04:23:04.819Z,99750
2022-11-15T04:29:06.950Z,99742
2022-11-15T04:35:28.272Z,99746
2022-11-15T04:41:38.553Z,99746
2022-11-15T04:47:50.855Z,99736
2022-11-15T04:54:03.917Z,99746
2022-11-15T05:00:10.458Z,99755
2022-11-15T05:06:10.774Z,99750
2022-11-15T05:12:14.628Z,99756
2022-11-15T05:18:11.860Z,99753
2022-11-15T05:30:51.605Z,99752
2022-11-15T05:36:53.692Z,99751
2022-11-15T05:43:11.362Z,99746
2022-11-15T05:49:10.358Z,99748
2022-11-15T05:55:06.256Z,99744
2022-11-15T06:00:58.290Z,99753
2022-11-15T06:06:55.130Z,99757
2022-11-15T06:12:56.212Z,99771
2022-11-15T06:18:56.827Z,99771
2022-11-15T06:25:09.980Z,99782
2022-11-15T06:31:07.281Z,99790
2022-11-15T06:37:07.185Z,99795
2022-11-15T06:43:20.465Z,99796
2022-11-15T06:49:31.130Z,99793
2022-11-15T06:55:38.876Z,99799
2022-11-15T07:01:31.037Z,99799
2022-11-15T07:07:23.855Z,99800
2022-11-15T07:13:31.748Z,99798
2022-11-15T07:19:28.789Z,99800
2022-11-15T07:25:27.639Z,99806
2022-11-15T07:31:21.581Z,99811
2022-11-15T07:37:14.428Z,99813
2022-11-15T07:43:12.855Z,99810
2022-11-15T07:49:04.877Z,99815
2022-11-15T07:54:56.395Z,99816
2022-11-15T08:01:00.421Z,99812
2022-11-15T08:06:51.380Z,99806
2022-11-15T08:12:48.145Z,99805
2022-11-15T08:18:59.412Z,99813
2022-11-15T08:24:49.493Z,99810
2022-11-15T08:30:52.793Z,99807
2022-11-15T08:36:49.630Z,99799
2022-11-15T08:42:47.733Z,99792
2022-11-15T08:48:41.677Z,99779
2022-11-15T08:54:44.804Z,99767
2022-11-15T09:00:41.020Z,99766
2022-11-15T09:06:48.645Z,99771
2022-11-15T09:12:52.720Z,99775
2022-11-15T09:18:44.161Z,99778
2022-11-15T09:24:48.626Z,99778
2022-11-15T09:30:41.626Z,99772
2022-11-15T09:36:31.841Z,99769
2022-11-15T09:42:23.039Z,99769
2022-11-15T09:48:22.442Z,99767
2022-11-15T09:54:56.878Z,99752
2022-11-15T10:00:56.578Z,99725
2022-11-15T10:06:51.686Z,99722
2022-11-15T10:12:48.322Z,99709
2022-11-15T10:18:47.711Z,99690
2022-11-15T10:24:43.702Z,99704
2022-11-15T10:31:07.035Z,99693
2022-11-15T10:37:04.028Z,99685
2022-11-15T10:43:10.333Z,99676
2022-11-15T10:49:18.089Z,99667
2022-11-15T10:55:14.336Z,99666
2022-11-15T11:01:12.412Z,99654
2022-11-15T11:07:07.762Z,99644
2022-11-15T11:13:17.906Z,99633
2022-11-15T11:19:09.863Z,99626
2022-11-15T11:25:05.030Z,99616
2022-11-15T11:31:16.796Z,99610
2022-11-15T11:37:19.965Z,99595
2022-11-15T11:43:15.068Z,99597
2022-11-15T11:49:08.985Z,99602
2022-11-15T11:55:00.644Z,99601
2022-11-15T12:00:53.516Z,99602
2022-11-15T12:06:53.206Z,99600
2022-11-15T12:12:45.292Z,99581
2022-11-15T12:18:43.217Z,99574
2022-11-15T12:24:54.232Z,99562
2022-11-15T12:31:22.372Z,99551
2022-11-15T12:43:24.203Z,99537
2022-11-15T12:49:21.096Z,99526
2022-11-15T13:02:11.115Z,99502
2022-11-15T13:08:41.778Z,99481
2022-11-15T13:16:31.427Z,99468
2022-11-15T13:22:59.531Z,99461
2022-11-15T13:28:57.888Z,99455
2022-11-15T13:35:00.992Z,99436
2022-11-15T13:40:52.565Z,99431
2022-11-15T13:46:50.793Z,99427
2022-11-15T13:52:46.316Z,99405
2022-11-15T13:59:04.821Z,99400
2022-11-15T14:05:09.652Z,99391
2022-11-15T14:11:03.063Z,99376
2022-11-15T14:16:54.754Z,99362
2022-11-15T14:22:50.861Z,99355
2022-11-15T14:28:45.419Z,99351
2022-11-15T14:34:43.119Z,99343
2022-11-15T14:40:35.960Z,99333
2022-11-15T14:46:28.215Z,99326
2022-11-15T14:52:37.262Z,99321
2022-11-15T14:58:28.645Z,99321
2022-11-15T15:04:48.392Z,99305
2022-11-15T15:10:52.231Z,99300
2022-11-15T15:16:54.304Z,99283
2022-11-15T15:23:00.529Z,99271
2022-11-15T15:28:59.755Z,99262
2022-11-15T15:35:05.490Z,99262
2022-11-15T15:41:23.937Z,99251
2022-11-15T15:47:15.201Z,99245
2022-11-15T15:53:11.405Z,99250
2022-11-15T15:59:08.792Z,99237
2022-11-15T16:05:00.636Z,99238
2022-11-15T16:10:51.665Z,99230
2022-11-15T16:16:43.717Z,99226
2022-11-15T16:29:36.029Z,99207
2022-11-15T16:35:28.368Z,99206
2022-11-15T16:41:20.203Z,99188
2022-11-15T16:47:19.647Z,99196
2022-11-15T16:53:18.417Z,99195
2022-11-15T16:59:08.661Z,99195
2022-11-15T17:05:04.444Z,99180
2022-11-15T17:11:06.981Z,99178
2022-11-15T17:16:59.206Z,99172
2022-11-15T17:22:53.173Z,99170
2022-11-15T17:28:43.646Z,99178
2022-11-15T17:34:37.114Z,99175
2022-11-15T17:40:27.528Z,99177
2022-11-15T17:46:17.310Z,99172
2022-11-15T17:52:06.974Z,99169
2022-11-15T17:58:03.154Z,99164
2022-11-15T18:03:51.820Z,99162
2022-11-15T18:09:44.350Z,99158
2022-11-15T18:15:42.119Z,99156
2022-11-15T18:21:43.662Z,99141
2022-11-15T18:27:36.084Z,99143
2022-11-15T18:33:27.213Z,99144
2022-11-15T18:39:34.348Z,99133
2022-11-15T18:45:52.437Z,99136
2022-11-15T18:52:00.461Z,99124
2022-11-15T18:57:51.617Z,99130
2022-11-15T19:03:44.185Z,99117
2022-11-15T19:09:36.734Z,99115
2022-11-15T19:15:29.685Z,99109
2022-11-15T19:21:24.414Z,99106
2022-11-15T19:27:22.631Z,99102
2022-11-15T19:33:17.264Z,99101
2022-11-15T19:39:16.926Z,99100
2022-11-15T19:45:21.987Z,99100
2022-11-15T19:51:40.093Z,99086
2022-11-15T19:57:31.258Z,99077
2022-11-15T20:03:25.132Z,99077
2022-11-15T20:09:21.128Z,99070
2022-11-15T20:15:21.313Z,99052
2022-11-15T20:21:14.875Z,99065
2022-11-15T20:27:16.869Z,99053
2022-11-15T20:33:06.980Z,99062
2022-11-15T20:39:00.326Z,99058
2022-11-15T20:44:55.764Z,99048
2022-11-15T20:50:49.316Z,99040
2022-11-15T20:56:55.367Z,99035
2022-11-15T21:02:47.421Z,99022
2022-11-15T21:08:40.727Z,99022
2022-11-15T21:14:31.821Z,99009
2022-11-15T21:20:22.260Z,99009
2022-11-15T21:26:13.977Z,98995
2022-11-15T21:32:12.256Z,98996
2022-11-15T21:38:05.746Z,98991
2022-11-15T21:43:57.194Z,98983
2022-11-15T21:49:52.677Z,98979
2022-11-15T21:55:46.258Z,98972
2022-11-15T22:01:36.288Z,98969
2022-11-15T22:07:27.506Z,98961
2022-11-15T22:13:25.159Z,98945
2022-11-15T22:19:17.077Z,98940
2022-11-15T22:25:09.120Z,98935
2022-11-15T22:31:03.186Z,98941
2022-11-15T22:37:23.022Z,98920
2022-11-15T22:43:10.177Z,98922
2022-11-15T22:49:07.466Z,98917
2022-11-15T22:54:58.399Z,98910
2022-11-15T23:00:46.438Z,98917
2022-11-15T23:06:37.060Z,98918
2022-11-15T23:12:27.884Z,98899
2022-11-15T23:18:23.399Z,98897
2022-11-15T23:24:12.550Z,98893
2022-11-15T23:30:04.065Z,98884
2022-11-15T23:35:52.871Z,98888
2022-11-15T23:41:42.586Z,98884
2022-11-15T23:47:32.179Z,98876
2022-11-15T23:54:33.615Z,98866
